Newquay, United Kingdom

9:29 AM GMT on February 10, 2016 (GMT +0000)
Newquay | | Change Station
CLOSE
Current Station
Personal Weather Station
Location: Newquay, CORNWALL
Elevation: 119 ft
Nearby Weather Stations

Elev 119 ft 50.42 °N, 5.05 °W | Updated 14 minutes ago

Light Rain Showers
Light Showers Rain
45.3 °F
Feels Like 39 °F
N
14.0
Wind Variable Wind from WNW
Gusts 23.0 mph

Today
High -- | Low -- °F
--% Chance of Precip.
Yesterday
High -- | Low -- °F
Precip. -- in
Pressure 29.53 in
Visibility 6.2 miles
Clouds Few 1200 ft
Scattered Clouds 1800 ft
Windchill 39 °F
Dew Point 39 °F
Humidity 78%
Rainfall 0.02 in
Snow Depth Not available.
7:41 AM 5:27 PM
Waxing Crescent, 4% visible
METAR EGDR 100850Z 29014G24KT 9999 -SHRA FEW012 SCT018CB 05/02 Q1000 WHT TEMPO 4000 SHRAGS SCT008 BKN016CB GRN
Pressure 29.53 in
Visibility 6.2 miles
Clouds Few 1200 ft
Scattered Clouds 1800 ft
Windchill 39 °F
Dew Point 39 °F
Humidity 78%
Rainfall 0.02 in
Snow Depth Not available.
7:41 AM 5:27 PM
Waxing Crescent, 4% visible
METAR EGDR 100850Z 29014G24KT 9999 -SHRA FEW012 SCT018CB 05/02 Q1000 WHT TEMPO 4000 SHRAGS SCT008 BKN016CB GRN

10-Day Weather Forecast

Almanac

Astronomy

Feb. 10, 2016 Rise Set
Actual Time
Civil Twilight
Nautical Twilight
Astronomical Twilight
Moon
Length of Visible Light
Length of Day
Tomorrow will be .
, % of the Moon is Illuminated

Today's Extremes

Country Highs Country Lows

Community

WunderPhotos

Upload Photos

1,891,826 photos uploaded!

WunderBlog® & News

Nearby

Air Quality

  Air Quality AQ Index Pollutant
Not available.

Snow Depth

Station Depth Elevation

Earthquake Activity

City Distance Mag. Time & Date
Minimum magnitude displayed is 2.5.

Coastal Water Temperatures

Place Temperature

Stations

Nearby Weather Stations

Station Location Temp. Windchill Dew Point Humidity Wind Precip. Elev Updated Type